Weather observations for the past three days for
Seminole, Gaines County Airport
Metric (Imperial)
Date Time (cdt) Wind (kph) Vis. (km) Weather Sky Cond. Temperature (ºC) Relative Humidity Wind Chill (°C) Heat Index (°C) Pressure Precipitation (cm)
Air Dwpt 6 hour altimeter (cm) sea level (mb) 1 hr 3 hr 6 hr
Max. Min.
06 01:55 Calm 16.09 Fair CLR 17.7 7.5 51% 75.92 0.0
06 01:35 Calm 16.09 Fair CLR 18 7.5 50% 75.92 0.0
06 01:15 Calm 16.09 Fair CLR 17.7 7.6 52% 75.92 0.0
06 00:55 Calm 16.09 Fair CLR 18.5 7.2 26.2 18 48% 75.92 0.0
06 00:15 S 7 16.09 Fair CLR 18.3 7.3 49% 75.87 0.0
05 23:55 W 7 16.09 Fair CLR 19 6.9 46% 75.87 0.0
05 23:35 W 9 16.09 Fair CLR 19.9 6.5 42% 75.87 0.0
05 23:15 NW 11 16.09 Fair CLR 18.9 7 46% 75.84 0.0
05 22:55 W 7 16.09 Fair CLR 19 7 46% 75.87 0.0
05 22:35 Calm 16.09 Fair CLR 19.5 6.7 44% 75.87 0.0
05 22:15 W 7 16.09 Fair CLR 20.1 6 40% 75.84 0.0
05 21:55 W 7 16.09 Fair CLR 20.4 6.1 39% 75.84 0.0
05 21:35 W 7 16.09 Fair CLR 20.5 6 39% 75.84 0.0
05 21:15 W 9 16.09 Fair CLR 21.8 5.4 34% 75.84 0.0
05 20:55 SW 11 16.09 Fair CLR 23.1 5 31% 75.84 0.0
05 20:35 SW 11 16.09 Fair CLR 23.7 4.9 30% 75.84 0.0
05 20:15 W 15 G 30 16.09 Fair CLR 24.2 4.8 29% 25 75.82 0.0
05 19:55 W 26 16.09 Partly Cloudy SCT100 25.2 4.4 26% 25 75.79 0.0
05 19:35 SW 24 G 33 16.09 Partly Cloudy SCT100 26 4 24% 26 75.79 0.0
05 19:15 SW 24 16.09 Fair CLR 26.1 3.4 23% 26 75.79 0.0
05 18:55 SW 17 16.09 Fair CLR 25.2 3.4 26.1 25.1 24% 25 75.79 0.0
05 18:35 SW 24 G 31 16.09 Fair CLR 25.5 3 23% 25 75.79 0.0
05 18:15 SW 20 G 31 16.09 Fair CLR 25.5 2.7 23% 25 75.79 0.0
05 17:55 W 28 G 37 16.09 Fair CLR 25.5 3 23% 25 75.79 0.0
05 17:35 W 30 G 39 16.09 Fair CLR 25.4 2.8 23% 25 75.79 0.0
05 17:15 W 26 G 39 16.09 Fair CLR 25.2 2.9 24% 25 75.82 0.0
05 16:55 W 28 G 37 16.09 Fair CLR 25.5 2.5 22% 25 75.82 0.0
05 16:35 W 31 G 50 16.09 Fair CLR 25.7 2.1 22% 25 75.84 0.0
05 16:15 SW 35 G 46 16.09 Fair and Breezy CLR 26 1.9 21% 26 75.84 0.0
05 15:55 W 28 G 44 16.09 Fair CLR 25.6 1.7 21% 25 75.84 0.0
05 15:35 W 28 G 41 16.09 Fair CLR 25.4 2.9 23% 25 75.87 0.0
05 15:15 W 30 G 39 16.09 Fair CLR 25.5 3.1 23% 25 75.87 0.0
05 14:35 W 24 G 39 16.09 Fair CLR 25.9 3.7 24% 26 75.87 0.0
05 14:15 SW 22 G 35 16.09 Fair CLR 26.1 3 22% 26 75.87 0.0
05 13:55 SW 22 16.09 Fair CLR 25.6 2.9 23% 25 75.87 0.0
05 13:35 W 19 16.09 Fair CLR 25.5 2.8 23% 25 75.92 0.0
05 13:15 SW 13 16.09 Fair CLR 25.5 3 23% 25 75.92 0.0
05 12:55 W 11 16.09 Fair CLR 25.1 3.4 25.3 18.9 25% 25 75.92 0.0
05 12:35 W 11 16.09 Fair CLR 25 3.7 25% 25 75.95 0.0
05 12:15 NW 9 16.09 Fair CLR 25 3.6 25% 25 75.95 0.0
05 11:55 W 15 16.09 Fair CLR 24.6 3.6 26% 25 75.92 0.0
05 11:35 W 13 16.09 Fair CLR 24.1 3.4 26% 25 75.92 0.0
05 11:15 W 13 16.09 Fair CLR 24.1 3.3 26% 25 75.92 0.0
05 10:55 W 11 16.09 Fair CLR 24 3.2 26% 25 75.92 0.0
05 10:35 W 13 16.09 Fair CLR 23.6 3.4 27% 75.92 0.0
05 10:15 W 11 16.09 Fair CLR 23 3.5 28% 75.9 0.0
05 09:55 W 11 16.09 Fair CLR 22.7 3.3 28% 75.92 0.0
05 09:35 W 13 16.09 Fair CLR 22.5 3.3 29% 75.87 0.0
05 09:15 W 13 16.09 Fair CLR 22 3.5 30% 75.87 0.0
05 08:55 W 13 16.09 Fair CLR 21 3.6 32% 75.87 0.0
05 08:35 NW 9 16.09 Fair CLR 20.3 3.4 33% 75.84 0.0
05 08:15 W 11 16.09 Fair CLR 20 3.1 33% 75.82 0.0
05 07:55 W 9 16.09 Fair CLR 19.5 3.5 35% 75.82 0.0
05 07:35 W 13 16.09 Fair CLR 19.4 3.4 35% 75.77 0.0
05 07:15 W 13 16.09 Fair CLR 19.2 3.3 35% 75.74 0.0
05 06:55 W 11 16.09 Fair CLR 19 3.5 20.9 17.6 36% 75.74 0.0
05 06:35 W 9 16.09 Fair CLR 19 3.6 36% 75.72 0.0
05 06:15 SW 11 16.09 Fair CLR 19.3 3.5 35% 75.72 0.0
05 05:55 SW 11 16.09 Fair CLR 19.5 3.7 35% 75.72 0.0
05 05:35 W 11 16.09 Fair CLR 20.5 3 32% 75.72 0.0
05 05:15 W 15 16.09 Fair CLR 19.6 3.9 36% 75.69 0.0
05 04:55 W 13 16.09 Fair CLR 18.6 4.8 40% 75.69 0.0
05 04:35 W 9 16.09 Fair CLR 17.6 5.4 45% 75.69 0.0
05 04:15 SW 11 16.09 Fair CLR 17.9 5 43% 75.69 0.0
05 03:55 SW 11 16.09 Fair CLR 18.7 4.4 39% 75.72 0.0
05 03:35 SW 15 16.09 Fair CLR 19.6 4 36% 75.72 0.0
05 03:15 SW 15 16.09 Fair CLR 19.6 3.9 36% 75.69 0.0
05 02:55 SW 17 16.09 Fair CLR 20.6 3.2 32% 75.69 0.0
05 02:35 SW 17 16.09 Fair CLR 20.6 3.7 33% 75.69 0.0
05 02:15 SW 15 16.09 Fair CLR 20.1 4.2 35% 75.72 0.0
05 01:55 W 9 16.09 Fair CLR 19.6 5 38% 75.74 0.0
05 01:35 SW 9 16.09 Fair CLR 20.1 4.5 36% 75.74 0.0
05 01:15 SW 9 16.09 Fair CLR 20.5 4.2 34% 75.74 0.0
05 00:55 SW 13 16.09 Fair CLR 20.9 3.8 29.3 20.9 33% 75.74 0.0
05 00:35 SW 15 16.09 Fair CLR 21 3.6 32% 75.77 0.0
05 00:15 SW 15 16.09 Fair CLR 21.6 3.1 30% 75.77 0.0
04 23:55 SW 15 16.09 Fair CLR 22.2 2.5 27% 75.79 0.0
04 23:35 W 15 16.09 Fair CLR 22 2.2 27% 75.77 0.0
04 23:15 SW 9 16.09 Fair CLR 22 2.1 27% 75.74 0.0
04 22:55 SW 11 16.09 Fair CLR 22.6 1.4 25% 75.74 0.0
04 22:35 W 13 16.09 Fair CLR 23 1 23% 75.74 0.0
04 22:15 W 15 16.09 Fair CLR 23.2 0.5 22% 75.74 0.0
04 21:55 SW 11 16.09 Fair CLR 23.5 0.1 21% 75.74 0.0
04 21:35 SW 13 16.09 Fair CLR 24.5 -0.5 19% 25 75.72 0.0
04 21:15 W 17 16.09 Fair CLR 25.3 -1.2 17% 25 75.72 0.0
04 20:55 W 17 16.09 Fair CLR 25.6 -1.3 17% 25 75.72 0.0
04 20:35 W 17 16.09 Fair CLR 25.9 -1.5 16% 25 75.69 0.0
04 20:15 W 22 G 33 16.09 Fair CLR 26.9 -2.4 14% 26 75.69 0.0
04 19:55 W 20 16.09 Fair CLR 27.5 -2.5 14% 26 75.67 0.0
04 19:35 W 26 G 33 16.09 Fair CLR 28 -3 13% 27 75.69 0.0
04 19:15 W 26 G 41 16.09 Fair CLR 28.6 -3.4 12% 27 75.72 0.0
04 18:55 SW 31 G 44 16.09 Fair CLR 29 -4.6 29.9 27.6 11% 27 75.72 0.0
04 18:35 SW 33 G 41 16.09 Fair and Breezy CLR 29.5 -2.5 12% 28 75.72 0.0
04 18:15 SW 20 G 28 16.09 Fair CLR 29.3 -0.1 15% 28 75.72 0.0
04 17:55 SW 20 G 33 16.09 Fair CLR 29.5 -0.2 15% 28 75.72 0.0
04 17:35 SW 20 G 30 16.09 Fair CLR 29.6 1.2 16% 28 75.74 0.0
04 17:15 SW 22 G 43 16.09 Fair CLR 29.7 1.4 16% 28 75.74 0.0
04 16:55 SW 30 G 43 16.09 Fair CLR 29.7 1.8 17% 28 75.77 0.0
04 16:35 SW 22 G 37 16.09 Fair CLR 27.8 2.7 20% 27 75.82 0.0
04 16:15 SW 26 G 35 16.09 Fair CLR 27.7 3.7 21% 27 75.84 0.0
04 15:55 SW 26 G 33 16.09 Fair CLR 27.7 3.9 22% 27 75.87 0.0
04 15:35 SW 26 G 37 16.09 Fair CLR 27.9 2.5 19% 27 75.87 0.0
04 15:15 SW 24 G 37 16.09 Fair CLR 27.9 2.7 20% 27 75.9 0.0
04 14:55 SW 26 G 37 16.09 Fair CLR 27.6 3.2 21% 26 75.92 0.0
04 14:35 W 30 G 35 16.09 Fair CLR 28.3 2.4 19% 27 75.92 0.0
04 14:15 SW 22 G 35 16.09 Fair CLR 28.6 2.7 19% 27 75.92 0.0
04 13:55 SW 28 G 35 16.09 Fair CLR 29.3 4 20% 28 75.92 0.0
04 13:35 SW 20 G 33 16.09 Fair CLR 29 6.2 24% 28 75.95 0.0
04 13:15 SW 22 G 31 16.09 Fair CLR 28.2 8.1 28% 27 75.95 0.0
04 12:55 SW 20 G 31 16.09 Fair CLR 28.5 7.7 28.8 13.5 27% 27 75.97 0.0
04 12:35 W 22 16.09 Fair CLR 28.7 8.5 28% 28 76 0.0
04 12:15 W 17 16.09 Fair CLR 28.3 8.6 29% 27 76.02 0.0
04 11:55 W 17 16.09 Fair CLR 28.2 8.5 29% 27 76.05 0.0
04 11:35 W 15 16.09 Fair CLR 27.2 8.5 31% 27 76.05 0.0
04 11:15 W 17 16.09 Fair CLR 26.4 9.6 35% 26 76.05 0.0
04 10:55 SW 15 G 26 16.09 Fair CLR 24.8 10.2 40% 26 76.05 0.0
04 10:35 SW 17 16.09 Fair CLR 23.4 10.6 45% 76.07 0.0
04 10:15 SW 19 16.09 Fair CLR 22.1 10.6 48% 76.1 0.0
04 09:55 SW 15 16.09 Fair CLR 20.8 10.8 53% 76.1 0.0
04 09:35 SW 17 16.09 Fair CLR 19.3 10.5 57% 76.1 0.0
04 09:15 SW 19 16.09 Fair CLR 18.7 10.7 60% 76.1 0.0
04 08:55 SW 20 16.09 Fair CLR 17.3 10.6 65% 76.05 0.0
04 08:35 SW 15 16.09 Fair CLR 16 10.5 70% 76.07 0.0
04 08:15 SW 17 16.09 Fair CLR 14.9 10.3 74% 76.05 0.0
04 07:55 SW 13 16.09 Fair CLR 14.2 10.2 77% 76.05 0.0
04 07:35 SW 11 16.09 Fair CLR 13.6 10.2 80% 76.02 0.0
04 07:15 SW 9 16.09 Fair CLR 13.5 10.1 80% 76 0.0
04 06:55 SW 11 16.09 Fair CLR 13.7 10 16.8 13.5 79% 75.97 0.0
04 06:35 SW 13 16.09 Fair CLR 13.7 10 79% 75.97 0.0
04 06:15 SW 9 16.09 Fair CLR 13.5 10 80% 75.97 0.0
04 05:55 SW 9 16.09 Fair CLR 13.5 10.1 80% 76 0.0
04 05:35 SW 9 16.09 Fair CLR 14 10 77% 76 0.0
04 05:15 SW 11 16.09 Fair CLR 14.5 9.8 74% 76 0.0
04 04:55 SW 11 16.09 Fair CLR 14.7 9.8 73% 76.02 0.0
04 04:15 SW 15 16.09 Fair CLR 15.1 9.9 71% 76.05 0.0
04 03:55 SW 13 16.09 Fair CLR 15 9.9 72% 76.07 0.0
04 03:35 SW 11 16.09 Fair CLR 15.2 9.7 70% 76.07 0.0
04 03:15 SW 13 16.09 Fair CLR 15.5 9.7 69% 76.1 0.0
04 02:55 SW 13 16.09 Fair CLR 15.6 9.6 68% 76.1 0.0
04 02:35 SW 11 16.09 Fair CLR 15.9 9.6 66% 76.15 0.0
04 02:15 S 11 16.09 Fair CLR 16.1 9.5 65% 76.15 0.0
04 01:55 S 11 16.09 Fair CLR 16.3 9.5 64% 76.2 0.0
04 01:35 S 9 16.09 Fair CLR 16.2 9.2 63% 76.2 0.0
04 01:15 S 9 16.09 Fair CLR 16.5 9.1 62% 76.23 0.0
04 00:55 S 9 16.09 Fair CLR 16.9 9 24 16.9 60% 76.23 0.0
04 00:35 S 13 16.09 Fair CLR 17.3 9 58% 76.23 0.0
04 00:15 S 13 16.09 Fair CLR 17.5 8.9 57% 76.23 0.0
03 23:55 S 17 16.09 Fair CLR 17.8 8.8 56% 76.23 0.0
03 23:35 S 13 16.09 Fair CLR 17.8 8.9 56% 76.25 0.0
03 23:15 S 13 16.09 Fair CLR 18.1 8.7 54% 76.25 0.0
03 22:55 S 15 16.09 Fair CLR 18.6 8.4 52% 76.25 0.0
03 22:35 S 15 16.09 Fair CLR 18.5 8.5 52% 76.25 0.0
03 22:15 S 11 16.09 Fair CLR 18.9 8.2 50% 76.25 0.0
03 21:55 S 11 16.09 Fair CLR 19.5 8 48% 76.25 0.0
03 21:35 S 13 16.09 Fair CLR 19.5 8 48% 76.23 0.0
03 21:15 S 9 16.09 Fair CLR 20 7.7 45% 76.23 0.0
03 20:55 S 7 16.09 Fair CLR 20.8 7.2 42% 76.23 0.0
03 20:35 S 9 16.09 Fair CLR 21.7 6.8 38% 76.23 0.0
03 20:15 S 11 16.09 Fair CLR 22.6 6.4 35% 76.23 0.0
03 19:55 S 13 16.09 Fair CLR 23 6 33% 76.23 0.0
03 19:35 SW 17 16.09 Fair CLR 23.4 5.8 32% 76.25 0.0
03 19:15 S 17 16.09 Fair CLR 24 6.2 32% 25 76.25 0.0
03 18:55 S 17 16.09 Fair CLR 23.9 6.2 24.6 21.5 32% 25 76.28 0.0
03 18:35 SW 17 G 26 16.09 Fair CLR 23.7 6 32% 76.28 0.0
03 18:15 SW 19 G 28 16.09 Fair CLR 23.7 6 32% 76.28 0.0
03 17:55 SW 22 16.09 Fair CLR 24 6.1 32% 25 76.33 0.0
03 17:35 SW 17 G 26 16.09 Fair CLR 24.1 5.8 31% 25 76.33 0.0
03 17:15 SW 15 G 26 16.09 Fair CLR 24.4 5.2 29% 25 76.33 0.0
03 16:55 S 19 G 31 16.09 Fair CLR 24 6.3 32% 25 76.33 0.0
03 16:35 SW 13 G 26 16.09 Fair CLR 24.3 6.2 31% 25 76.38 0.0
03 16:15 S 13 G 20 16.09 Fair CLR 24 6 31% 25 76.4 0.0
03 15:55 SW 11 G 26 16.09 Fair CLR 24 6.2 32% 25 76.45 0.0
03 15:35 S 24 G 31 16.09 Fair CLR 23.6 6.1 32% 76.48 0.0
03 15:15 S 22 G 28 16.09 Fair CLR 23.1 6.3 34% 76.5 0.0
03 14:55 S 19 G 30 16.09 Fair CLR 23.6 6.6 34% 76.53 0.0
03 14:35 S 15 G 26 16.09 Fair CLR 22.8 6.3 35% 76.56 0.0
03 14:15 S 19 G 28 16.09 Fair CLR 23.1 6.3 34% 76.58 0.0
03 13:35 S 17 G 26 16.09 Fair CLR 22.4 6.6 36% 76.63 0.0
03 13:15 S 19 16.09 Fair CLR 21.7 6.4 37% 76.68 0.0
03 12:55 S 17 16.09 Fair CLR 21.3 6.3 21.3 10.5 38% 76.68 0.0
03 12:35 S 19 16.09 Fair CLR 20.7 6.4 40% 76.73 0.0
03 12:15 S 17 16.09 Fair CLR 21 7 40% 76.73 0.0
03 11:55 S 20 16.09 Fair CLR 20.5 7.1 42% 76.76 0.0
03 11:35 S 19 16.09 Fair CLR 19.7 7.3 45% 76.78 0.0
03 11:15 S 19 G 28 16.09 Fair CLR 19.3 7.7 47% 76.78 0.0
03 10:55 S 19 G 26 16.09 Fair CLR 18.9 7.9 49% 76.81 0.0
03 10:35 S 22 16.09 Fair CLR 18.2 8.2 52% 76.81 0.0
03 10:15 S 17 16.09 Fair CLR 17.6 8.3 55% 76.81 0.0
03 09:55 S 19 G 28 16.09 Fair CLR 17.1 8.1 56% 76.84 0.0
03 09:35 S 19 G 26 16.09 Fair CLR 16.6 8.3 58% 76.84 0.0
03 09:15 S 20 16.09 Fair CLR 16 8.5 61% 76.84 0.0
03 08:55 S 15 16.09 Fair CLR 14.9 8.5 66% 76.84 0.0
03 08:35 S 11 16.09 Fair CLR 13.8 8.4 70% 76.84 0.0
03 08:15 S 7 16.09 Fair CLR 12.8 8 73% 76.81 0.0
03 07:35 S 9 16.09 Fair CLR 11.1 7.5 79% 76.78 0.0
03 07:15 SW 7 16.09 Fair CLR 10.7 7.5 81% 76.76 0.0
03 06:55 SW 11 16.09 Fair CLR 10.5 7.5 12.9 10.5 82% 76.73 0.0
03 06:35 SW 9 16.09 Fair CLR 10.5 7.6 82% 76.73 0.0
03 06:15 SW 7 16.09 Fair CLR 10.5 7.8 84% 76.73 0.0
03 05:55 SW 9 16.09 Fair CLR 10.5 7.8 84% 76.73 0.0
03 05:35 SW 7 16.09 Fair CLR 10.8 7.7 81% 76.73 0.0
03 05:15 SW 9 16.09 Fair CLR 11 7.6 80% 76.73 0.0
03 04:55 SW 7 16.09 Fair CLR 11 7.7 80% 76.76 0.0
03 04:35 SW 9 16.09 Fair CLR 11.3 7.8 79% 76.76 0.0
03 04:15 SW 9 16.09 Fair CLR 11.5 7.7 78% 76.76 0.0
03 03:55 SW 9 16.09 Fair CLR 11.5 7.8 78% 76.76 0.0
03 03:35 S 9 16.09 Fair CLR 11.7 7.7 77% 76.76 0.0
03 03:15 SW 7 16.09 Fair CLR 12 7.7 75% 76.78 0.0
03 02:55 SW 9 16.09 Fair CLR 12 7.8 76% 76.78 0.0
03 02:35 Calm 16.09 Fair CLR 12.1 7.9 76% 76.78 0.0
Date Time (cdt) Wind (kph) Vis. (km) Weather Sky Cond. Air Dwpt Max. Min. Relative Humidity Wind Chill (°C) Heat Index (°C) altimeter (cm) sea level (mb) 1 hr 3 hr 6 hr
6 hour
Temperature (ºC) Pressure Precipitation (cm)